Time;durP1;ratioP1;P1;durP2;ratioP2;P2;SDS_P1;SDS_P2;PMS_P1;PMS_P2;Temp;Humidity;BMP_temperature;BMP_pressure;BME280_temperature;BME280_humidity;BME280_pressure;Samples;Min_cycle;Max_cycle;Signal;HPM_P1;HPM_P2
2021/12/31 00:00:36;;;;;;;1.60;1.10;;;13.80;98.20;;;;;;5039731;28;20515;-71
2021/12/31 00:03:03;;;;;;;1.60;1.00;;;13.80;98.20;;;;;;5043737;28;20564;-71
2021/12/31 00:05:30;;;;;;;1.60;1.00;;;13.80;98.20;;;;;;5040437;28;20561;-70
2021/12/31 00:07:58;;;;;;;1.60;1.00;;;13.80;98.20;;;;;;5048851;28;20604;-71
2021/12/31 00:10:25;;;;;;;1.70;1.10;;;13.80;98.20;;;;;;5042626;28;20482;-71
2021/12/31 00:12:52;;;;;;;1.70;1.10;;;13.80;98.20;;;;;;5030256;28;20549;-70
2021/12/31 00:15:19;;;;;;;1.60;1.00;;;13.80;98.20;;;;;;5045233;28;20468;-71
2021/12/31 00:17:47;;;;;;;1.67;1.10;;;13.80;98.20;;;;;;5048966;28;21027;-71
2021/12/31 00:20:16;;;;;;;1.63;1.10;;;13.80;98.20;;;;;;5041046;28;20577;-70
2021/12/31 00:25:32;;;;;;;1.63;1.10;;;13.80;98.20;;;;;;5036493;28;20962;-71
2021/12/31 00:28:00;;;;;;;1.60;1.00;;;13.80;98.20;;;;;;5048110;28;20548;-71
2021/12/31 00:30:27;;;;;;;1.60;1.00;;;13.80;98.20;;;;;;5044571;28;20513;-71
2021/12/31 00:32:54;;;;;;;1.63;1.00;;;13.80;98.20;;;;;;5048463;28;21315;-71
2021/12/31 00:35:21;;;;;;;1.60;1.07;;;13.80;98.20;;;;;;5043953;28;20458;-71
2021/12/31 00:37:48;;;;;;;1.70;1.00;;;13.80;98.20;;;;;;5050217;28;20579;-72
2021/12/31 00:40:17;;;;;;;1.70;1.20;;;13.80;98.20;;;;;;5041388;28;20482;-71
2021/12/31 00:42:46;;;;;;;1.63;1.00;;;13.80;98.20;;;;;;5024669;28;20491;-71
2021/12/31 00:45:15;;;;;;;1.70;1.20;;;13.80;98.20;;;;;;5043157;28;20555;-71
2021/12/31 00:47:43;;;;;;;1.70;1.17;;;13.80;98.20;;;;;;5045781;28;20485;-71
2021/12/31 00:50:10;;;;;;;1.60;1.00;;;13.80;98.20;;;;;;5043675;28;20500;-71
2021/12/31 00:52:37;;;;;;;1.60;1.00;;;13.80;98.20;;;;;;5026601;28;20516;-71
2021/12/31 00:55:05;;;;;;;1.60;1.00;;;13.80;98.20;;;;;;5042860;28;20462;-71
2021/12/31 00:57:33;;;;;;;1.63;1.10;;;13.80;98.20;;;;;;5025907;28;20474;-71
2021/12/31 01:00:01;;;;;;;1.67;1.10;;;13.80;98.20;;;;;;5040809;28;20520;-72
2021/12/31 01:02:29;;;;;;;1.60;1.00;;;13.80;98.20;;;;;;5024914;28;21151;-71
2021/12/31 01:04:56;;;;;;;1.60;1.10;;;13.80;98.20;;;;;;5040406;28;21362;-71
2021/12/31 01:07:23;;;;;;;1.67;1.10;;;13.90;98.20;;;;;;5042707;28;20952;-71
2021/12/31 01:09:50;;;;;;;1.60;1.00;;;13.90;98.20;;;;;;5043232;28;20565;-71
2021/12/31 01:12:17;;;;;;;1.63;1.10;;;13.90;98.20;;;;;;5013494;28;20484;-71
2021/12/31 01:14:54;;;;;;;1.60;1.00;;;13.90;98.20;;;;;;5018446;28;20459;-71
2021/12/31 01:17:39;;;;;;;1.70;1.10;;;13.90;98.20;;;;;;5016431;28;20478;-71
2021/12/31 01:20:07;;;;;;;1.63;1.10;;;13.90;98.20;;;;;;5025440;28;20483;-71
2021/12/31 01:22:35;;;;;;;1.60;1.10;;;13.90;98.20;;;;;;5026579;28;20486;-72
2021/12/31 01:25:04;;;;;;;1.70;1.10;;;13.90;98.20;;;;;;5025417;28;20841;-72
2021/12/31 01:27:31;;;;;;;1.67;1.00;;;13.90;98.20;;;;;;5026967;28;21341;-71
2021/12/31 01:29:58;;;;;;;1.60;1.10;;;13.90;98.20;;;;;;5026401;28;20498;-71
2021/12/31 01:32:27;;;;;;;1.60;1.10;;;13.90;98.20;;;;;;5004906;28;20491;-71
2021/12/31 01:34:54;;;;;;;1.60;1.10;;;13.90;98.20;;;;;;5024613;28;20463;-71
2021/12/31 01:37:21;;;;;;;1.60;1.00;;;13.90;98.20;;;;;;5021954;28;21004;-71
2021/12/31 01:39:48;;;;;;;1.67;1.10;;;13.90;98.20;;;;;;5024738;28;20491;-71
2021/12/31 01:42:17;;;;;;;1.70;1.00;;;13.90;98.20;;;;;;5019274;28;21175;-71
2021/12/31 01:44:52;;;;;;;1.70;1.10;;;13.90;98.20;;;;;;5041798;28;20858;-71
2021/12/31 01:47:22;;;;;;;1.60;1.10;;;14.00;98.20;;;;;;5045032;28;20842;-72
2021/12/31 01:49:57;;;;;;;1.70;1.10;;;13.90;98.20;;;;;;5042811;28;20486;-71
2021/12/31 01:52:25;;;;;;;1.70;1.10;;;14.00;98.20;;;;;;5021237;28;20657;-72
2021/12/31 01:54:52;;;;;;;1.70;1.30;;;14.00;98.20;;;;;;5041038;28;20497;-71
2021/12/31 01:57:21;;;;;;;1.70;1.10;;;14.00;98.20;;;;;;5044893;28;20488;-72
2021/12/31 01:59:48;;;;;;;1.67;1.10;;;13.90;98.20;;;;;;5037825;28;20465;-72
2021/12/31 02:02:16;;;;;;;1.60;1.00;;;14.00;98.20;;;;;;5042050;28;20470;-72
2021/12/31 02:04:43;;;;;;;1.70;1.20;;;13.90;98.20;;;;;;5046272;28;20776;-72
2021/12/31 02:07:12;;;;;;;1.60;1.00;;;13.90;98.20;;;;;;5042131;28;20528;-72
2021/12/31 02:09:46;;;;;;;1.63;1.10;;;13.90;98.20;;;;;;5044707;28;21018;-72
2021/12/31 02:12:13;;;;;;;1.67;1.00;;;13.90;98.20;;;;;;5011225;28;21028;-72
2021/12/31 02:14:40;;;;;;;1.60;1.00;;;13.90;98.20;;;;;;5016547;28;20464;-72
2021/12/31 02:17:10;;;;;;;1.63;1.10;;;14.00;98.20;;;;;;5017510;28;20896;-72
2021/12/31 02:19:37;;;;;;;1.70;1.10;;;14.00;98.20;;;;;;5023844;28;20485;-72
2021/12/31 02:22:08;;;;;;;1.60;1.00;;;14.00;98.20;;;;;;5014490;28;21173;-72
2021/12/31 02:24:36;;;;;;;1.60;1.00;;;14.00;98.20;;;;;;5023062;28;20554;-72
2021/12/31 02:27:04;;;;;;;1.60;1.00;;;14.00;98.20;;;;;;5018518;28;20474;-72
2021/12/31 02:29:31;;;;;;;1.63;1.03;;;14.00;98.20;;;;;;5024921;28;20495;-72
2021/12/31 02:31:59;;;;;;;1.67;1.10;;;14.00;98.20;;;;;;5020786;28;20597;-73
2021/12/31 02:34:26;;;;;;;13.60;5.20;;;14.00;98.20;;;;;;5041563;28;20623;-72
2021/12/31 02:36:53;;;;;;;1.60;1.10;;;14.00;98.20;;;;;;5031501;28;20481;-72
2021/12/31 02:39:21;;;;;;;1.60;1.10;;;14.00;98.20;;;;;;5046476;28;20462;-72
2021/12/31 02:41:48;;;;;;;1.60;1.00;;;14.00;98.20;;;;;;5031753;28;21021;-72
2021/12/31 02:44:15;;;;;;;1.70;1.13;;;14.00;98.20;;;;;;5022803;28;21195;-72
2021/12/31 02:46:42;;;;;;;1.60;1.00;;;14.00;98.20;;;;;;5026119;28;20470;-72
2021/12/31 02:49:09;;;;;;;1.63;1.00;;;14.00;98.20;;;;;;5039045;28;20787;-72
2021/12/31 02:51:36;;;;;;;1.60;1.00;;;14.00;98.20;;;;;;5027796;28;20620;-72
2021/12/31 02:54:10;;;;;;;1.63;1.10;;;14.00;98.20;;;;;;5035568;28;20466;-72
2021/12/31 02:56:38;;;;;;;1.63;1.00;;;14.00;98.20;;;;;;5033159;28;20496;-72
2021/12/31 02:59:05;;;;;;;1.60;1.10;;;14.00;98.20;;;;;;5044178;28;20489;-72
2021/12/31 03:01:32;;;;;;;1.60;1.00;;;14.00;98.20;;;;;;5029521;28;20483;-72
2021/12/31 03:04:00;;;;;;;1.60;1.10;;;14.00;98.20;;;;;;5037957;28;21132;-73
2021/12/31 03:06:29;;;;;;;1.67;1.10;;;14.00;98.20;;;;;;5039961;28;20478;-72
2021/12/31 03:08:58;;;;;;;1.63;1.10;;;14.00;98.20;;;;;;5051862;28;20486;-72
2021/12/31 03:11:27;;;;;;;1.60;1.00;;;14.00;98.20;;;;;;5032334;28;20552;-72
2021/12/31 03:13:58;;;;;;;1.70;1.20;;;14.00;98.20;;;;;;5041049;28;20531;-73
2021/12/31 03:16:25;;;;;;;1.60;1.10;;;14.00;98.20;;;;;;5031304;28;20562;-72
2021/12/31 03:18:52;;;;;;;1.60;1.10;;;13.90;98.20;;;;;;5040204;28;20561;-72
2021/12/31 03:21:22;;;;;;;1.60;1.00;;;14.00;98.20;;;;;;5038742;28;20489;-72
2021/12/31 03:23:52;;;;;;;1.63;1.10;;;13.90;98.20;;;;;;5058440;28;20462;-72
2021/12/31 03:26:20;;;;;;;1.67;1.13;;;13.90;98.20;;;;;;5029130;28;20565;-72
2021/12/31 03:28:47;;;;;;;1.63;1.03;;;13.90;98.20;;;;;;5051236;28;20490;-72
2021/12/31 03:31:15;;;;;;;1.67;1.10;;;13.90;98.20;;;;;;5034420;28;20491;-72
2021/12/31 03:33:42;;;;;;;1.60;1.00;;;13.90;98.20;;;;;;5042167;28;20494;-72
2021/12/31 03:36:09;;;;;;;1.70;1.10;;;13.90;98.20;;;;;;5032342;28;20482;-72
2021/12/31 03:38:36;;;;;;;1.60;1.10;;;13.90;98.20;;;;;;5042069;28;20451;-72
2021/12/31 03:41:03;;;;;;;1.70;1.20;;;13.90;98.20;;;;;;5031618;28;20486;-72
2021/12/31 03:43:30;;;;;;;1.70;1.10;;;13.90;98.20;;;;;;5056421;28;21025;-72
2021/12/31 03:45:57;;;;;;;1.70;1.10;;;13.90;98.20;;;;;;5031023;28;20467;-72
2021/12/31 03:48:25;;;;;;;1.63;1.00;;;13.90;98.20;;;;;;5044051;28;20466;-72
2021/12/31 03:50:52;;;;;;;1.60;1.00;;;13.90;98.20;;;;;;5035099;28;20517;-72
2021/12/31 03:53:19;;;;;;;1.63;1.07;;;13.90;98.20;;;;;;5055587;28;20465;-72
2021/12/31 03:55:47;;;;;;;1.63;1.10;;;13.90;98.20;;;;;;5041169;28;20551;-72
2021/12/31 03:58:14;;;;;;;1.60;1.10;;;13.90;98.20;;;;;;5032281;28;21099;-72
2021/12/31 04:00:41;;;;;;;1.70;1.17;;;13.90;98.20;;;;;;5043906;28;20494;-72
2021/12/31 04:03:09;;;;;;;1.60;1.00;;;13.80;98.20;;;;;;5029745;28;20975;-72
2021/12/31 04:05:39;;;;;;;1.67;1.07;;;13.80;98.20;;;;;;5042567;28;20545;-72
2021/12/31 04:08:06;;;;;;;1.60;1.00;;;13.80;98.20;;;;;;5029170;28;20871;-72
2021/12/31 04:10:33;;;;;;;1.60;1.00;;;13.80;98.20;;;;;;5042218;28;20978;-72
2021/12/31 04:13:00;;;;;;;1.70;1.10;;;13.70;98.20;;;;;;5029650;28;20600;-72
2021/12/31 04:15:27;;;;;;;1.70;1.10;;;13.70;98.20;;;;;;5040910;28;20454;-72
2021/12/31 04:17:54;;;;;;;1.60;1.03;;;13.70;98.20;;;;;;5046033;28;20505;-72
2021/12/31 04:20:32;;;;;;;1.63;1.00;;;13.60;98.20;;;;;;5041012;28;20971;-72
2021/12/31 04:23:03;;;;;;;1.67;1.10;;;13.60;98.20;;;;;;5025239;28;20482;-72
2021/12/31 04:25:30;;;;;;;1.60;1.00;;;13.60;98.20;;;;;;5036596;28;20463;-72
2021/12/31 04:27:57;;;;;;;1.60;1.00;;;13.60;98.20;;;;;;5032035;28;20482;-72
2021/12/31 04:30:24;;;;;;;1.67;1.10;;;13.50;98.20;;;;;;5041682;28;20490;-72
2021/12/31 04:32:51;;;;;;;1.60;1.13;;;13.50;98.20;;;;;;5025960;28;20480;-71
2021/12/31 04:35:19;;;;;;;1.63;1.10;;;13.50;98.20;;;;;;5043320;28;21013;-72
2021/12/31 04:37:46;;;;;;;1.60;1.10;;;13.50;98.20;;;;;;5050642;28;21024;-70
2021/12/31 04:40:15;;;;;;;1.60;1.07;;;13.50;98.20;;;;;;5042619;28;20485;-71
2021/12/31 04:42:42;;;;;;;1.60;1.00;;;13.50;98.20;;;;;;5044932;28;20477;-71
2021/12/31 04:45:11;;;;;;;1.63;1.00;;;13.40;98.20;;;;;;5044051;28;20467;-71
2021/12/31 04:47:38;;;;;;;1.60;1.00;;;13.40;98.20;;;;;;5031701;28;20502;-71
2021/12/31 04:50:06;;;;;;;1.63;1.07;;;13.40;98.20;;;;;;5037549;28;20536;-71
2021/12/31 04:52:33;;;;;;;1.60;1.00;;;13.30;98.20;;;;;;5046398;28;21020;-71
2021/12/31 04:55:00;;;;;;;1.60;1.03;;;13.30;98.20;;;;;;5045423;28;20462;-71
2021/12/31 04:57:28;;;;;;;1.60;1.03;;;13.30;98.20;;;;;;5043655;28;20485;-71
2021/12/31 04:59:55;;;;;;;1.63;1.10;;;13.30;98.20;;;;;;5041595;28;20458;-71
2021/12/31 05:02:22;;;;;;;1.60;1.10;;;13.30;98.20;;;;;;5043090;28;20560;-71
2021/12/31 05:04:50;;;;;;;1.70;1.10;;;13.30;98.20;;;;;;5043096;28;20545;-71
2021/12/31 05:07:16;;;;;;;1.67;1.10;;;13.30;98.20;;;;;;5037249;28;20482;-71
2021/12/31 05:09:43;;;;;;;1.67;1.17;;;13.20;98.20;;;;;;5039928;28;20482;-71
2021/12/31 05:12:14;;;;;;;1.60;1.00;;;13.20;98.20;;;;;;5034960;28;20490;-71
2021/12/31 05:14:45;;;;;;;1.63;1.10;;;13.20;98.20;;;;;;5043941;28;20540;-71
2021/12/31 05:17:11;;;;;;;1.67;1.10;;;13.20;98.20;;;;;;5032606;28;20521;-71
2021/12/31 05:19:43;;;;;;;1.70;1.20;;;13.20;98.20;;;;;;5043371;28;21064;-71
2021/12/31 05:22:10;;;;;;;1.70;1.10;;;13.20;98.20;;;;;;5034623;28;20504;-71
2021/12/31 05:24:37;;;;;;;1.60;1.10;;;13.20;98.20;;;;;;5045544;28;20466;-71
2021/12/31 05:27:05;;;;;;;1.60;1.00;;;13.20;98.20;;;;;;5044199;28;20877;-71
2021/12/31 05:29:32;;;;;;;1.67;1.10;;;13.20;98.20;;;;;;5050715;28;20478;-71
2021/12/31 05:32:00;;;;;;;1.60;1.10;;;13.20;98.20;;;;;;5029791;28;20581;-71
2021/12/31 05:34:27;;;;;;;1.67;1.10;;;13.20;98.20;;;;;;5044461;28;20463;-71
2021/12/31 05:36:54;;;;;;;1.60;1.07;;;13.20;98.20;;;;;;5036821;28;20490;-71
2021/12/31 05:39:21;;;;;;;1.63;1.10;;;13.20;98.20;;;;;;5043009;28;20463;-71
2021/12/31 05:41:48;;;;;;;1.60;1.10;;;13.20;98.20;;;;;;5036777;28;21220;-71
2021/12/31 05:44:15;;;;;;;1.60;1.00;;;13.10;98.20;;;;;;5051014;28;20498;-71
2021/12/31 05:46:45;;;;;;;1.63;1.10;;;13.10;98.20;;;;;;5031488;28;20490;-71
2021/12/31 05:49:13;;;;;;;1.60;1.00;;;13.20;98.20;;;;;;5037658;28;21044;-71
2021/12/31 05:51:40;;;;;;;1.60;1.03;;;13.10;98.20;;;;;;5039833;28;20734;-71
2021/12/31 05:54:07;;;;;;;1.63;1.10;;;13.10;98.20;;;;;;5048532;28;20489;-71
2021/12/31 05:56:34;;;;;;;1.60;1.10;;;13.10;98.20;;;;;;5037252;28;20501;-71
2021/12/31 05:59:01;;;;;;;1.60;1.00;;;13.10;98.20;;;;;;5049283;28;20550;-71
2021/12/31 06:01:27;;;;;;;1.70;1.20;;;13.10;98.20;;;;;;5035055;28;20552;-71
2021/12/31 06:03:54;;;;;;;1.60;1.00;;;13.10;98.20;;;;;;5052463;28;20841;-71
2021/12/31 06:06:22;;;;;;;1.63;1.00;;;13.10;98.20;;;;;;5037636;28;20477;-71
2021/12/31 06:08:49;;;;;;;1.60;1.00;;;13.00;98.20;;;;;;5055312;28;20947;-71
2021/12/31 06:11:16;;;;;;;1.67;1.20;;;13.10;98.20;;;;;;5036624;28;20480;-71
2021/12/31 06:13:44;;;;;;;1.70;1.10;;;13.10;98.20;;;;;;5055585;28;20462;-71
2021/12/31 06:16:12;;;;;;;1.67;1.07;;;13.00;98.20;;;;;;5034980;28;20586;-72
2021/12/31 06:18:40;;;;;;;1.63;1.03;;;13.10;98.20;;;;;;5055447;28;20477;-71
2021/12/31 06:21:07;;;;;;;1.67;1.10;;;13.00;98.20;;;;;;5032572;28;20482;-71
2021/12/31 06:23:35;;;;;;;1.70;1.10;;;13.00;98.20;;;;;;5055498;28;20462;-71
2021/12/31 06:26:02;;;;;;;1.60;1.10;;;13.00;98.20;;;;;;5032521;28;20473;-71
2021/12/31 06:28:29;;;;;;;1.60;1.00;;;13.00;98.20;;;;;;5054837;28;20985;-71
2021/12/31 06:30:56;;;;;;;1.60;1.00;;;13.00;98.20;;;;;;5034282;28;20501;-71
2021/12/31 06:33:23;;;;;;;1.63;1.10;;;13.00;98.20;;;;;;5042596;28;20469;-71
2021/12/31 06:35:49;;;;;;;1.67;1.10;;;13.00;98.20;;;;;;5032190;28;20466;-71
2021/12/31 06:38:17;;;;;;;1.63;1.10;;;13.00;98.20;;;;;;5059610;28;20466;-71
2021/12/31 06:40:46;;;;;;;1.60;1.00;;;13.00;98.20;;;;;;5042391;28;20481;-71
2021/12/31 06:43:12;;;;;;;1.80;1.47;;;13.00;98.20;;;;;;5027705;28;20479;-71
2021/12/31 06:45:39;;;;;;;1.60;1.07;;;13.00;98.20;;;;;;5042602;28;20463;-71
2021/12/31 06:48:06;;;;;;;1.70;1.10;;;12.90;98.20;;;;;;5050177;28;20477;-71
2021/12/31 06:50:33;;;;;;;1.67;1.03;;;12.90;98.20;;;;;;5042469;28;20565;-71
2021/12/31 06:53:01;;;;;;;1.60;1.10;;;12.80;98.20;;;;;;5050515;28;20488;-71
2021/12/31 06:55:28;;;;;;;1.63;1.10;;;12.80;98.20;;;;;;5042039;28;20466;-71
2021/12/31 06:57:56;;;;;;;1.63;1.10;;;12.70;98.20;;;;;;5048822;28;20485;-71
2021/12/31 07:00:23;;;;;;;1.63;1.10;;;12.70;98.20;;;;;;5046120;28;20475;-71
2021/12/31 07:02:50;;;;;;;1.67;1.10;;;12.60;98.20;;;;;;5047712;28;20477;-71
2021/12/31 07:05:17;;;;;;;1.60;1.07;;;12.60;98.20;;;;;;5043292;28;20482;-71
2021/12/31 07:07:45;;;;;;;1.60;1.00;;;12.50;98.20;;;;;;5046452;28;20481;-71
2021/12/31 07:10:15;;;;;;;1.60;1.10;;;12.50;98.20;;;;;;5045790;28;20908;-71
2021/12/31 07:12:42;;;;;;;1.63;1.10;;;12.40;98.20;;;;;;5048299;28;20917;-71
2021/12/31 07:15:10;;;;;;;1.63;1.10;;;12.40;98.20;;;;;;5045539;28;20537;-71
2021/12/31 07:17:37;;;;;;;1.60;1.00;;;12.30;98.20;;;;;;5030293;28;20573;-71
2021/12/31 07:20:06;;;;;;;1.70;1.33;;;12.30;98.20;;;;;;5040241;28;20524;-71
2021/12/31 07:22:34;;;;;;;1.70;1.20;;;12.30;98.20;;;;;;5045360;28;20566;-71
2021/12/31 07:25:01;;;;;;;1.70;1.17;;;12.20;98.20;;;;;;5043794;28;20470;-71
2021/12/31 07:27:29;;;;;;;1.67;1.10;;;12.20;98.20;;;;;;5030896;28;20479;-72
2021/12/31 07:29:55;;;;;;;1.67;1.10;;;12.20;98.20;;;;;;5041888;28;20516;-71
2021/12/31 07:32:24;;;;;;;1.67;1.10;;;12.20;98.20;;;;;;5032366;28;20512;-71
2021/12/31 07:34:51;;;;;;;1.60;1.03;;;12.20;98.20;;;;;;5041565;28;20470;-71
2021/12/31 07:37:18;;;;;;;1.63;1.10;;;12.10;98.20;;;;;;5032304;28;20502;-71
2021/12/31 07:39:47;;;;;;;1.60;1.03;;;12.10;98.20;;;;;;5043769;28;20946;-71
2021/12/31 07:42:14;;;;;;;1.70;1.10;;;12.10;98.20;;;;;;5029184;28;20493;-71
2021/12/31 07:44:42;;;;;;;1.67;1.20;;;12.10;98.20;;;;;;5039146;28;20856;-71
2021/12/31 07:47:09;;;;;;;1.63;1.10;;;12.10;98.20;;;;;;5044312;28;20855;-71
2021/12/31 07:49:37;;;;;;;1.60;1.00;;;12.10;98.20;;;;;;5048303;28;20954;-70
2021/12/31 07:52:05;;;;;;;1.67;1.10;;;12.10;98.20;;;;;;5030744;28;20867;-70
2021/12/31 07:54:32;;;;;;;1.67;1.10;;;12.10;98.20;;;;;;5042455;28;20494;-70
2021/12/31 07:56:59;;;;;;;1.60;1.00;;;12.10;98.20;;;;;;5038586;28;21379;-71
2021/12/31 07:59:26;;;;;;;1.63;1.10;;;12.10;98.20;;;;;;5046955;28;20463;-70
2021/12/31 08:01:53;;;;;;;1.67;1.07;;;12.10;98.20;;;;;;5038655;28;20491;-71
2021/12/31 08:04:20;;;;;;;1.70;1.10;;;12.10;98.20;;;;;;5039115;28;20464;-71
2021/12/31 08:06:49;;;;;;;1.67;1.10;;;12.10;98.20;;;;;;5040716;28;20500;-71
2021/12/31 08:09:15;;;;;;;1.70;1.10;;;12.20;98.20;;;;;;5045441;28;20467;-72
2021/12/31 08:11:43;;;;;;;1.60;1.10;;;12.20;98.20;;;;;;5036796;28;20580;-72
2021/12/31 08:14:10;;;;;;;1.63;1.10;;;12.20;98.20;;;;;;5041179;28;20558;-72
2021/12/31 08:16:37;;;;;;;1.60;1.00;;;12.30;98.20;;;;;;5040159;28;20492;-72
2021/12/31 08:19:06;;;;;;;1.67;1.10;;;12.30;98.20;;;;;;5050512;28;20470;-70
2021/12/31 08:21:33;;;;;;;1.63;1.10;;;12.30;98.20;;;;;;5037966;28;20517;-71
2021/12/31 08:24:02;;;;;;;1.60;1.00;;;12.40;98.20;;;;;;5051201;28;20891;-71
2021/12/31 08:26:29;;;;;;;1.63;1.00;;;12.40;98.20;;;;;;5036988;28;20501;-71
2021/12/31 08:28:56;;;;;;;1.70;1.10;;;12.50;98.20;;;;;;5051883;28;20458;-72
2021/12/31 08:31:23;;;;;;;1.60;1.00;;;12.50;98.20;;;;;;5032066;28;20503;-71
2021/12/31 08:33:50;;;;;;;1.63;1.07;;;12.50;98.20;;;;;;5046854;28;20455;-71
2021/12/31 08:36:17;;;;;;;1.67;1.10;;;12.50;98.20;;;;;;5034257;28;21087;-71
2021/12/31 08:38:44;;;;;;;1.60;1.00;;;12.50;98.20;;;;;;5044278;28;20954;-71
2021/12/31 08:41:14;;;;;;;1.63;1.10;;;12.50;98.20;;;;;;5031834;28;20558;-71
2021/12/31 08:43:41;;;;;;;1.63;1.10;;;12.50;98.20;;;;;;5057699;28;21101;-71
2021/12/31 08:46:08;;;;;;;1.60;1.07;;;12.50;98.20;;;;;;5033008;28;20555;-71
2021/12/31 08:48:35;;;;;;;1.70;1.10;;;12.50;98.20;;;;;;5058588;28;20838;-71
2021/12/31 08:51:02;;;;;;;1.67;1.10;;;12.50;98.20;;;;;;5029734;28;20589;-71
2021/12/31 08:53:29;;;;;;;1.70;1.10;;;12.50;98.20;;;;;;5055750;28;20838;-71
2021/12/31 08:55:56;;;;;;;1.67;1.13;;;12.50;98.20;;;;;;5028463;28;20457;-71
2021/12/31 08:58:24;;;;;;;1.70;1.20;;;12.50;98.20;;;;;;5041952;28;20466;-71
2021/12/31 09:00:51;;;;;;;1.63;1.00;;;12.50;98.20;;;;;;5033408;28;20497;-71
2021/12/31 09:03:18;;;;;;;1.67;1.10;;;12.50;98.20;;;;;;5041896;28;20458;-71
2021/12/31 09:05:46;;;;;;;1.60;1.03;;;12.50;98.20;;;;;;5035610;28;20466;-72
2021/12/31 09:08:13;;;;;;;1.60;1.00;;;12.50;98.20;;;;;;5021011;28;20478;-72
2021/12/31 09:10:40;;;;;;;1.67;1.17;;;12.50;98.20;;;;;;5040796;28;20489;-72
2021/12/31 09:13:07;;;;;;;1.70;1.20;;;12.50;98.20;;;;;;5021048;28;20485;-72
2021/12/31 09:15:35;;;;;;;1.60;1.00;;;12.60;98.20;;;;;;5042453;28;20532;-71
2021/12/31 09:18:03;;;;;;;1.70;1.10;;;12.60;98.20;;;;;;5029832;28;21113;-72
2021/12/31 09:20:30;;;;;;;1.63;1.10;;;12.60;98.20;;;;;;5042886;28;20654;-72
2021/12/31 09:22:57;;;;;;;1.60;1.10;;;12.60;98.20;;;;;;5045522;28;20500;-71
2021/12/31 09:25:24;;;;;;;1.60;1.00;;;12.60;98.20;;;;;;5038816;28;20637;-71
2021/12/31 09:27:51;;;;;;;1.67;1.10;;;12.60;98.20;;;;;;5029613;28;20604;-71
2021/12/31 09:30:18;;;;;;;1.70;1.20;;;12.60;98.20;;;;;;5038871;28;20482;-71
2021/12/31 09:32:47;;;;;;;1.60;1.10;;;12.70;98.20;;;;;;5044646;28;20486;-72
2021/12/31 09:35:14;;;;;;;1.70;1.10;;;12.70;98.20;;;;;;5030436;28;20889;-69
2021/12/31 09:37:41;;;;;;;1.60;1.00;;;12.70;98.20;;;;;;5024712;28;20486;-71
2021/12/31 09:40:11;;;;;;;1.63;1.20;;;12.80;98.20;;;;;;5040136;28;20990;-72
2021/12/31 09:42:39;;;;;;;1.60;1.00;;;12.80;98.20;;;;;;5048969;28;20480;-71
2021/12/31 09:45:07;;;;;;;1.70;1.20;;;12.80;98.20;;;;;;5044338;28;20465;-72
2021/12/31 09:47:35;;;;;;;1.60;1.10;;;12.80;98.20;;;;;;5048150;28;20572;-72
2021/12/31 09:50:04;;;;;;;1.60;1.00;;;12.90;98.20;;;;;;5040015;28;20916;-70
2021/12/31 09:52:32;;;;;;;1.63;1.20;;;12.90;98.20;;;;;;5036916;28;20866;-71
2021/12/31 09:55:00;;;;;;;1.70;1.20;;;12.90;98.20;;;;;;5039327;28;20960;-71
2021/12/31 09:57:28;;;;;;;1.60;1.10;;;12.90;98.20;;;;;;5037640;28;20788;-71
2021/12/31 10:00:00;;;;;;;1.60;1.00;;;12.90;98.20;;;;;;5040431;28;20553;-71
2021/12/31 10:02:33;;;;;;;1.63;1.00;;;12.90;98.20;;;;;;5041148;28;20481;-71
2021/12/31 10:05:01;;;;;;;1.60;1.00;;;13.00;98.20;;;;;;5042574;28;20474;-71
2021/12/31 10:07:30;;;;;;;1.60;1.10;;;13.00;98.20;;;;;;5045003;28;20516;-72
2021/12/31 10:10:14;;;;;;;1.60;1.00;;;13.00;98.20;;;;;;5042923;28;20470;-71
2021/12/31 10:12:50;;;;;;;1.60;1.10;;;13.00;98.20;;;;;;5041955;28;20563;-71
2021/12/31 10:15:19;;;;;;;1.67;1.10;;;13.10;98.20;;;;;;5045288;28;20462;-71
2021/12/31 10:17:46;;;;;;;1.60;1.00;;;13.10;98.20;;;;;;5044304;28;20492;-71
2021/12/31 10:20:15;;;;;;;1.63;1.00;;;13.10;98.20;;;;;;5042069;28;20490;-71
2021/12/31 10:22:43;;;;;;;1.63;1.10;;;13.20;98.20;;;;;;5043432;28;20483;-70
2021/12/31 10:25:18;;;;;;;1.60;1.00;;;13.30;98.20;;;;;;5037375;28;20907;-70
2021/12/31 10:27:45;;;;;;;1.60;1.10;;;13.30;98.20;;;;;;5046354;28;20629;-70
2021/12/31 10:30:13;;;;;;;1.60;1.07;;;13.30;98.20;;;;;;5039850;28;20934;-70
2021/12/31 10:32:41;;;;;;;1.67;1.10;;;13.40;98.20;;;;;;5044561;28;20526;-70
2021/12/31 10:35:10;;;;;;;1.67;1.10;;;13.40;98.20;;;;;;5043404;28;20848;-70
2021/12/31 10:37:44;;;;;;;1.60;1.10;;;13.50;98.20;;;;;;5045475;28;20508;-70
2021/12/31 10:40:13;;;;;;;1.60;1.00;;;13.50;98.20;;;;;;5036279;28;20482;-70
2021/12/31 10:42:41;;;;;;;1.60;1.00;;;13.60;98.20;;;;;;5042183;28;20481;-71
2021/12/31 10:45:09;;;;;;;1.60;1.10;;;13.60;98.20;;;;;;5041917;28;20471;-71
2021/12/31 10:47:39;;;;;;;1.70;1.10;;;13.70;98.20;;;;;;5045432;28;20803;-71
2021/12/31 10:50:09;;;;;;;1.70;1.10;;;13.70;98.20;;;;;;5040423;28;20941;-72
2021/12/31 10:52:40;;;;;;;1.67;1.10;;;13.80;98.20;;;;;;5039762;28;20480;-71
2021/12/31 10:55:22;;;;;;;1.60;1.00;;;13.80;98.20;;;;;;5046702;28;20539;-71
2021/12/31 10:57:51;;;;;;;1.67;1.10;;;13.80;98.20;;;;;;5045905;28;20496;-71
2021/12/31 11:00:19;;;;;;;1.60;1.00;;;13.90;98.20;;;;;;5036562;28;20486;-71
2021/12/31 11:02:47;;;;;;;1.60;1.00;;;13.90;98.20;;;;;;5044758;28;20485;-71
2021/12/31 11:05:22;;;;;;;1.70;1.10;;;13.90;98.20;;;;;;5040156;28;20464;-71
2021/12/31 11:07:49;;;;;;;1.63;1.00;;;13.90;98.20;;;;;;5046443;28;20501;-71
2021/12/31 11:10:20;;;;;;;1.60;1.10;;;13.90;98.20;;;;;;5038623;28;20528;-71
2021/12/31 11:12:49;;;;;;;1.60;1.10;;;13.90;98.20;;;;;;5040992;28;20574;-71
2021/12/31 11:15:16;;;;;;;1.63;1.00;;;13.90;98.20;;;;;;5040606;28;20466;-71
2021/12/31 11:17:43;;;;;;;1.60;1.00;;;13.90;98.20;;;;;;5043840;28;20803;-71
2021/12/31 11:20:12;;;;;;;1.60;1.00;;;13.90;98.20;;;;;;5037583;28;20513;-71
2021/12/31 11:22:40;;;;;;;1.60;1.00;;;13.90;98.20;;;;;;5023111;28;20749;-72
2021/12/31 11:25:28;;;;;;;1.60;1.00;;;13.80;98.20;;;;;;5034716;28;20523;-72
2021/12/31 11:27:56;;;;;;;1.63;1.10;;;13.80;98.20;;;;;;5045559;28;20485;-72
2021/12/31 11:30:35;;;;;;;1.67;1.10;;;13.80;98.20;;;;;;5040046;28;20486;-72
2021/12/31 11:33:06;;;;;;;1.60;1.03;;;13.80;98.20;;;;;;5042542;28;20609;-72
2021/12/31 11:35:47;;;;;;;1.60;1.00;;;13.80;98.20;;;;;;5042762;28;20465;-73
2021/12/31 11:38:16;;;;;;;1.67;1.10;;;13.80;98.20;;;;;;5027250;28;20478;-72
2021/12/31 11:40:50;;;;;;;1.60;1.00;;;13.80;98.20;;;;;;5041916;28;20573;-72
2021/12/31 11:43:20;;;;;;;1.60;1.03;;;13.90;98.20;;;;;;5026783;28;20585;-72
2021/12/31 11:46:31;;;;;;;1.60;1.07;;;13.80;98.20;;;;;;5040325;28;20463;-72
2021/12/31 11:49:00;;;;;;;1.60;1.00;;;13.90;98.20;;;;;;4980730;28;20997;-72
2021/12/31 11:51:28;;;;;;;1.60;1.00;;;13.90;98.20;;;;;;5034733;28;21306;-72
2021/12/31 11:54:18;;;;;;;1.60;1.10;;;13.90;98.20;;;;;;5050325;28;20558;-72
2021/12/31 11:57:14;;;;;;;1.60;1.10;;;14.00;98.20;;;;;;5034669;28;20481;-73
2021/12/31 11:59:54;;;;;;;1.60;1.10;;;14.00;98.20;;;;;;5042435;28;20466;-72
2021/12/31 12:02:36;;;;;;;1.70;1.10;;;14.00;98.20;;;;;;5040701;28;20504;-72
2021/12/31 12:05:14;;;;;;;1.60;1.00;;;14.10;98.20;;;;;;5039051;28;20469;-72
2021/12/31 12:07:46;;;;;;;1.67;1.10;;;14.10;98.20;;;;;;5048018;28;20480;-71
2021/12/31 12:10:27;;;;;;;1.60;1.00;;;14.20;98.20;;;;;;5042949;28;20565;-72
2021/12/31 12:12:58;;;;;;;1.60;1.00;;;14.20;98.20;;;;;;5048778;28;20481;-72
2021/12/31 12:15:33;;;;;;;1.70;1.10;;;14.30;98.20;;;;;;5045383;28;20951;-72
2021/12/31 12:18:03;;;;;;;1.70;1.00;;;14.40;98.20;;;;;;5046149;28;20481;-72
2021/12/31 12:20:38;;;;;;;1.70;1.10;;;14.50;98.20;;;;;;5045936;28;20489;-72
2021/12/31 12:23:21;;;;;;;1.60;1.00;;;14.50;98.20;;;;;;5047058;28;20474;-72
2021/12/31 12:25:48;;;;;;;1.60;1.03;;;14.60;98.20;;;;;;5031775;28;20482;-73
2021/12/31 12:28:18;;;;;;;1.60;1.00;;;14.70;98.20;;;;;;5054555;28;20486;-72
2021/12/31 12:30:53;;;;;;;1.63;1.00;;;14.70;98.20;;;;;;5040560;28;20601;-72
2021/12/31 12:33:25;;;;;;;1.67;1.17;;;14.80;98.20;;;;;;5031931;28;20579;-76
2021/12/31 12:35:53;;;;;;;1.60;1.00;;;14.90;98.20;;;;;;5032630;28;20469;-72
2021/12/31 12:38:22;;;;;;;1.70;1.10;;;14.90;98.20;;;;;;5050962;28;20474;-72
2021/12/31 12:40:53;;;;;;;1.60;1.00;;;14.90;98.20;;;;;;5031652;28;20486;-72
2021/12/31 12:43:23;;;;;;;1.60;1.10;;;14.90;98.20;;;;;;5055068;28;20494;-70
2021/12/31 12:45:52;;;;;;;1.70;1.10;;;14.90;98.20;;;;;;5030645;28;20954;-71
2021/12/31 12:48:33;;;;;;;1.67;1.07;;;15.00;98.20;;;;;;5055772;28;20462;-70
2021/12/31 12:51:01;;;;;;;1.70;1.10;;;15.00;98.20;;;;;;5029098;28;20536;-71
2021/12/31 12:53:30;;;;;;;1.60;1.10;;;15.00;98.20;;;;;;5053648;28;21022;-71
2021/12/31 12:56:05;;;;;;;1.60;1.00;;;15.10;98.20;;;;;;5030887;28;21092;-71
2021/12/31 12:58:36;;;;;;;1.60;1.00;;;15.10;98.20;;;;;;5055572;28;20482;-71